sensor_id;sensor_type;location;lat;lon;timestamp;temperature;humidity
16517;DHT22;8371;52.272;9.746;2022-12-11T00:01:55;2.40;82.80
16517;DHT22;8371;52.272;9.746;2022-12-11T00:04:21;2.40;82.80
16517;DHT22;8371;52.272;9.746;2022-12-11T00:06:46;2.40;82.80
16517;DHT22;8371;52.272;9.746;2022-12-11T00:09:14;2.40;82.80
16517;DHT22;8371;52.272;9.746;2022-12-11T00:11:40;2.40;82.80
16517;DHT22;8371;52.272;9.746;2022-12-11T00:14:06;2.40;82.90
16517;DHT22;8371;52.272;9.746;2022-12-11T00:16:31;2.40;82.80
16517;DHT22;8371;52.272;9.746;2022-12-11T00:18:57;2.40;82.80
16517;DHT22;8371;52.272;9.746;2022-12-11T00:21:23;2.40;82.70
16517;DHT22;8371;52.272;9.746;2022-12-11T00:23:48;2.40;82.80
16517;DHT22;8371;52.272;9.746;2022-12-11T00:26:15;2.40;82.70
16517;DHT22;8371;52.272;9.746;2022-12-11T00:28:41;2.40;82.70
16517;DHT22;8371;52.272;9.746;2022-12-11T00:31:10;2.40;82.60
16517;DHT22;8371;52.272;9.746;2022-12-11T00:33:36;2.40;82.50
16517;DHT22;8371;52.272;9.746;2022-12-11T00:36:02;2.40;82.50
16517;DHT22;8371;52.272;9.746;2022-12-11T00:38:28;2.40;82.50
16517;DHT22;8371;52.272;9.746;2022-12-11T00:40:58;2.40;82.40
16517;DHT22;8371;52.272;9.746;2022-12-11T00:43:24;2.40;82.40
16517;DHT22;8371;52.272;9.746;2022-12-11T00:45:50;2.40;82.30
16517;DHT22;8371;52.272;9.746;2022-12-11T00:48:15;2.40;82.40
16517;DHT22;8371;52.272;9.746;2022-12-11T00:50:41;2.40;82.20
16517;DHT22;8371;52.272;9.746;2022-12-11T00:53:07;2.40;82.20
16517;DHT22;8371;52.272;9.746;2022-12-11T00:55:37;2.40;82.20
16517;DHT22;8371;52.272;9.746;2022-12-11T00:58:03;2.40;82.30
16517;DHT22;8371;52.272;9.746;2022-12-11T01:00:29;2.40;82.20
16517;DHT22;8371;52.272;9.746;2022-12-11T01:02:55;2.40;82.20
16517;DHT22;8371;52.272;9.746;2022-12-11T01:05:21;2.30;82.10
16517;DHT22;8371;52.272;9.746;2022-12-11T01:07:46;2.40;82.20
16517;DHT22;8371;52.272;9.746;2022-12-11T01:10:13;2.30;82.10
16517;DHT22;8371;52.272;9.746;2022-12-11T01:12:57;2.30;82.20
16517;DHT22;8371;52.272;9.746;2022-12-11T01:15:22;2.30;82.10
16517;DHT22;8371;52.272;9.746;2022-12-11T01:17:49;2.30;82.20
16517;DHT22;8371;52.272;9.746;2022-12-11T01:20:15;2.30;82.20
16517;DHT22;8371;52.272;9.746;2022-12-11T01:22:41;2.30;82.20
16517;DHT22;8371;52.272;9.746;2022-12-11T01:25:07;2.30;82.20
16517;DHT22;8371;52.272;9.746;2022-12-11T01:27:35;2.30;82.20
16517;DHT22;8371;52.272;9.746;2022-12-11T01:30:01;2.30;82.20
16517;DHT22;8371;52.272;9.746;2022-12-11T01:32:27;2.30;82.20
16517;DHT22;8371;52.272;9.746;2022-12-11T01:34:53;2.30;82.10
16517;DHT22;8371;52.272;9.746;2022-12-11T01:37:19;2.30;82.90
16517;DHT22;8371;52.272;9.746;2022-12-11T01:39:45;2.30;82.10
16517;DHT22;8371;52.272;9.746;2022-12-11T01:42:15;2.30;82.10
16517;DHT22;8371;52.272;9.746;2022-12-11T01:47:10;2.30;82.10
16517;DHT22;8371;52.272;9.746;2022-12-11T01:49:37;2.30;82.10
16517;DHT22;8371;52.272;9.746;2022-12-11T01:52:10;2.30;82.10
16517;DHT22;8371;52.272;9.746;2022-12-11T01:54:36;2.30;82.00
16517;DHT22;8371;52.272;9.746;2022-12-11T01:57:04;2.30;82.00
16517;DHT22;8371;52.272;9.746;2022-12-11T01:59:34;2.30;82.00
16517;DHT22;8371;52.272;9.746;2022-12-11T02:02:07;2.30;82.80
16517;DHT22;8371;52.272;9.746;2022-12-11T02:04:35;2.30;82.10
16517;DHT22;8371;52.272;9.746;2022-12-11T02:07:02;2.30;82.00
16517;DHT22;8371;52.272;9.746;2022-12-11T02:09:31;2.30;82.00
16517;DHT22;8371;52.272;9.746;2022-12-11T02:14:55;2.20;81.70
16517;DHT22;8371;52.272;9.746;2022-12-11T02:17:25;2.20;81.70
16517;DHT22;8371;52.272;9.746;2022-12-11T02:20:08;2.20;81.90
16517;DHT22;8371;52.272;9.746;2022-12-11T02:22:50;2.20;81.70
16517;DHT22;8371;52.272;9.746;2022-12-11T02:25:24;2.20;82.50
16517;DHT22;8371;52.272;9.746;2022-12-11T02:30:22;2.20;81.40
16517;DHT22;8371;52.272;9.746;2022-12-11T02:32:55;2.20;81.80
16517;DHT22;8371;52.272;9.746;2022-12-11T02:35:24;2.10;81.80
16517;DHT22;8371;52.272;9.746;2022-12-11T02:37:54;2.10;81.70
16517;DHT22;8371;52.272;9.746;2022-12-11T02:40:22;2.10;81.70
16517;DHT22;8371;52.272;9.746;2022-12-11T02:42:49;2.10;81.60
16517;DHT22;8371;52.272;9.746;2022-12-11T02:45:18;2.10;81.70
16517;DHT22;8371;52.272;9.746;2022-12-11T02:47:46;2.10;81.80
16517;DHT22;8371;52.272;9.746;2022-12-11T02:50:15;2.10;81.80
16517;DHT22;8371;52.272;9.746;2022-12-11T02:52:42;2.10;81.40
16517;DHT22;8371;52.272;9.746;2022-12-11T02:55:11;2.00;81.30
16517;DHT22;8371;52.272;9.746;2022-12-11T02:57:54;2.00;81.70
16517;DHT22;8371;52.272;9.746;2022-12-11T03:00:19;2.00;81.60
16517;DHT22;8371;52.272;9.746;2022-12-11T03:02:46;2.00;81.60
16517;DHT22;8371;52.272;9.746;2022-12-11T03:05:13;2.00;81.70
16517;DHT22;8371;52.272;9.746;2022-12-11T03:07:41;2.00;81.60
16517;DHT22;8371;52.272;9.746;2022-12-11T03:10:10;2.00;81.70
16517;DHT22;8371;52.272;9.746;2022-12-11T03:12:39;2.00;81.70
16517;DHT22;8371;52.272;9.746;2022-12-11T03:15:13;2.00;81.60
16517;DHT22;8371;52.272;9.746;2022-12-11T03:17:41;1.90;81.70
16517;DHT22;8371;52.272;9.746;2022-12-11T03:23:01;1.90;81.90
16517;DHT22;8371;52.272;9.746;2022-12-11T03:25:32;1.90;81.80
16517;DHT22;8371;52.272;9.746;2022-12-11T03:28:09;1.90;81.80
16517;DHT22;8371;52.272;9.746;2022-12-11T03:30:34;1.90;81.90
16517;DHT22;8371;52.272;9.746;2022-12-11T03:33:04;1.90;81.90
16517;DHT22;8371;52.272;9.746;2022-12-11T03:35:43;1.90;81.90
16517;DHT22;8371;52.272;9.746;2022-12-11T03:38:14;1.90;81.90
16517;DHT22;8371;52.272;9.746;2022-12-11T03:40:40;1.90;81.90
16517;DHT22;8371;52.272;9.746;2022-12-11T03:43:09;1.90;81.90
16517;DHT22;8371;52.272;9.746;2022-12-11T03:45:37;1.90;81.90
16517;DHT22;8371;52.272;9.746;2022-12-11T03:48:04;1.80;81.80
16517;DHT22;8371;52.272;9.746;2022-12-11T03:50:33;1.80;81.90
16517;DHT22;8371;52.272;9.746;2022-12-11T03:52:59;1.80;81.90
16517;DHT22;8371;52.272;9.746;2022-12-11T03:55:27;1.80;82.00
16517;DHT22;8371;52.272;9.746;2022-12-11T03:57:54;1.90;82.10
16517;DHT22;8371;52.272;9.746;2022-12-11T04:00:20;1.80;81.90
16517;DHT22;8371;52.272;9.746;2022-12-11T04:02:46;1.80;81.90
16517;DHT22;8371;52.272;9.746;2022-12-11T04:05:14;1.80;81.90
16517;DHT22;8371;52.272;9.746;2022-12-11T04:07:39;1.90;82.00
16517;DHT22;8371;52.272;9.746;2022-12-11T04:10:05;1.80;81.90
16517;DHT22;8371;52.272;9.746;2022-12-11T04:12:31;1.80;81.90
16517;DHT22;8371;52.272;9.746;2022-12-11T04:14:57;1.80;81.90
16517;DHT22;8371;52.272;9.746;2022-12-11T04:17:35;1.80;81.90
16517;DHT22;8371;52.272;9.746;2022-12-11T04:20:15;1.80;81.90
16517;DHT22;8371;52.272;9.746;2022-12-11T04:23:05;1.80;81.90
16517;DHT22;8371;52.272;9.746;2022-12-11T04:25:49;1.80;81.90
16517;DHT22;8371;52.272;9.746;2022-12-11T04:28:15;1.80;81.90
16517;DHT22;8371;52.272;9.746;2022-12-11T04:30:47;1.80;81.90
16517;DHT22;8371;52.272;9.746;2022-12-11T04:33:12;1.80;81.90
16517;DHT22;8371;52.272;9.746;2022-12-11T04:35:38;1.80;81.80
16517;DHT22;8371;52.272;9.746;2022-12-11T04:38:04;1.80;81.70
16517;DHT22;8371;52.272;9.746;2022-12-11T04:40:30;1.80;81.70
16517;DHT22;8371;52.272;9.746;2022-12-11T04:42:56;1.80;81.70
16517;DHT22;8371;52.272;9.746;2022-12-11T04:45:21;1.80;81.70
16517;DHT22;8371;52.272;9.746;2022-12-11T04:47:47;1.80;81.70
16517;DHT22;8371;52.272;9.746;2022-12-11T04:50:14;1.80;81.80
16517;DHT22;8371;52.272;9.746;2022-12-11T04:52:40;1.80;81.80
16517;DHT22;8371;52.272;9.746;2022-12-11T04:55:07;1.80;81.90
16517;DHT22;8371;52.272;9.746;2022-12-11T04:57:33;1.80;81.80
16517;DHT22;8371;52.272;9.746;2022-12-11T04:59:59;1.80;81.70
16517;DHT22;8371;52.272;9.746;2022-12-11T05:02:26;1.80;81.70
16517;DHT22;8371;52.272;9.746;2022-12-11T05:04:52;1.80;81.70
16517;DHT22;8371;52.272;9.746;2022-12-11T05:07:18;1.80;81.70
16517;DHT22;8371;52.272;9.746;2022-12-11T05:09:43;1.80;81.60
16517;DHT22;8371;52.272;9.746;2022-12-11T05:12:09;1.80;81.40
16517;DHT22;8371;52.272;9.746;2022-12-11T05:14:35;1.80;81.50
16517;DHT22;8371;52.272;9.746;2022-12-11T05:17:00;1.80;81.50
16517;DHT22;8371;52.272;9.746;2022-12-11T05:19:26;1.80;82.20
16517;DHT22;8371;52.272;9.746;2022-12-11T05:21:52;1.70;81.50
16517;DHT22;8371;52.272;9.746;2022-12-11T05:24:18;1.70;81.40
16517;DHT22;8371;52.272;9.746;2022-12-11T05:26:43;1.70;81.40
16517;DHT22;8371;52.272;9.746;2022-12-11T05:29:09;1.70;81.40
16517;DHT22;8371;52.272;9.746;2022-12-11T05:31:35;1.70;81.50
16517;DHT22;8371;52.272;9.746;2022-12-11T05:34:01;1.70;81.50
16517;DHT22;8371;52.272;9.746;2022-12-11T05:36:30;1.70;81.50
16517;DHT22;8371;52.272;9.746;2022-12-11T05:38:57;1.70;81.40
16517;DHT22;8371;52.272;9.746;2022-12-11T05:41:25;1.70;81.50
16517;DHT22;8371;52.272;9.746;2022-12-11T05:43:52;1.70;81.40
16517;DHT22;8371;52.272;9.746;2022-12-11T05:46:21;1.70;81.30
16517;DHT22;8371;52.272;9.746;2022-12-11T05:48:48;1.70;81.30
16517;DHT22;8371;52.272;9.746;2022-12-11T05:51:15;1.70;81.40
16517;DHT22;8371;52.272;9.746;2022-12-11T05:53:42;1.70;81.40
16517;DHT22;8371;52.272;9.746;2022-12-11T05:56:14;1.70;81.40
16517;DHT22;8371;52.272;9.746;2022-12-11T05:58:42;1.70;81.40
16517;DHT22;8371;52.272;9.746;2022-12-11T06:01:11;1.70;81.40
16517;DHT22;8371;52.272;9.746;2022-12-11T06:03:37;1.70;81.40
16517;DHT22;8371;52.272;9.746;2022-12-11T06:06:04;1.70;81.30
16517;DHT22;8371;52.272;9.746;2022-12-11T06:08:31;1.70;81.30
16517;DHT22;8371;52.272;9.746;2022-12-11T06:10:57;1.70;81.30
16517;DHT22;8371;52.272;9.746;2022-12-11T06:13:23;1.70;81.30
16517;DHT22;8371;52.272;9.746;2022-12-11T06:15:49;1.70;81.30
16517;DHT22;8371;52.272;9.746;2022-12-11T06:18:14;1.70;81.20
16517;DHT22;8371;52.272;9.746;2022-12-11T06:20:40;1.70;82.00
16517;DHT22;8371;52.272;9.746;2022-12-11T06:23:06;1.70;81.10
16517;DHT22;8371;52.272;9.746;2022-12-11T06:25:32;1.70;81.10
16517;DHT22;8371;52.272;9.746;2022-12-11T06:27:58;1.70;81.10
16517;DHT22;8371;52.272;9.746;2022-12-11T06:30:24;1.70;81.10
16517;DHT22;8371;52.272;9.746;2022-12-11T06:32:50;1.80;81.20
16517;DHT22;8371;52.272;9.746;2022-12-11T06:35:16;1.80;81.10
16517;DHT22;8371;52.272;9.746;2022-12-11T06:37:41;1.80;81.10
16517;DHT22;8371;52.272;9.746;2022-12-11T06:40:09;1.80;80.90
16517;DHT22;8371;52.272;9.746;2022-12-11T06:42:35;1.80;80.80
16517;DHT22;8371;52.272;9.746;2022-12-11T06:45:01;1.80;81.00
16517;DHT22;8371;52.272;9.746;2022-12-11T06:47:28;1.80;81.00
16517;DHT22;8371;52.272;9.746;2022-12-11T06:49:55;1.80;80.90
16517;DHT22;8371;52.272;9.746;2022-12-11T06:52:22;1.80;80.90
16517;DHT22;8371;52.272;9.746;2022-12-11T06:54:48;1.80;80.90
16517;DHT22;8371;52.272;9.746;2022-12-11T06:57:15;1.80;80.80
16517;DHT22;8371;52.272;9.746;2022-12-11T06:59:41;1.80;80.90
16517;DHT22;8371;52.272;9.746;2022-12-11T07:02:11;1.80;80.90
16517;DHT22;8371;52.272;9.746;2022-12-11T07:04:36;1.80;80.60
16517;DHT22;8371;52.272;9.746;2022-12-11T07:07:02;1.80;80.80
16517;DHT22;8371;52.272;9.746;2022-12-11T07:09:28;1.80;80.80
16517;DHT22;8371;52.272;9.746;2022-12-11T07:11:53;1.80;80.80
16517;DHT22;8371;52.272;9.746;2022-12-11T07:14:19;1.80;80.80
16517;DHT22;8371;52.272;9.746;2022-12-11T07:16:45;1.80;80.90
16517;DHT22;8371;52.272;9.746;2022-12-11T07:19:11;1.80;80.80
16517;DHT22;8371;52.272;9.746;2022-12-11T07:21:36;1.70;80.50
16517;DHT22;8371;52.272;9.746;2022-12-11T07:24:02;1.80;80.60
16517;DHT22;8371;52.272;9.746;2022-12-11T07:26:28;1.80;80.80
16517;DHT22;8371;52.272;9.746;2022-12-11T07:28:58;1.80;80.80
16517;DHT22;8371;52.272;9.746;2022-12-11T07:31:25;1.80;80.90
16517;DHT22;8371;52.272;9.746;2022-12-11T07:33:59;1.70;80.80
16517;DHT22;8371;52.272;9.746;2022-12-11T07:36:26;1.70;80.70
16517;DHT22;8371;52.272;9.746;2022-12-11T07:38:52;1.70;80.60
16517;DHT22;8371;52.272;9.746;2022-12-11T07:41:19;1.70;80.70
16517;DHT22;8371;52.272;9.746;2022-12-11T07:43:45;1.70;80.70
16517;DHT22;8371;52.272;9.746;2022-12-11T07:46:12;1.70;80.70
16517;DHT22;8371;52.272;9.746;2022-12-11T07:48:40;1.70;80.70
16517;DHT22;8371;52.272;9.746;2022-12-11T07:51:18;1.70;80.80
16517;DHT22;8371;52.272;9.746;2022-12-11T07:53:46;1.70;80.80
16517;DHT22;8371;52.272;9.746;2022-12-11T07:56:12;1.70;80.80
16517;DHT22;8371;52.272;9.746;2022-12-11T07:58:38;1.70;81.00
16517;DHT22;8371;52.272;9.746;2022-12-11T08:01:10;1.70;80.90
16517;DHT22;8371;52.272;9.746;2022-12-11T08:03:38;1.70;80.90
16517;DHT22;8371;52.272;9.746;2022-12-11T08:06:04;1.70;80.90
16517;DHT22;8371;52.272;9.746;2022-12-11T08:08:30;1.70;80.90
16517;DHT22;8371;52.272;9.746;2022-12-11T08:11:01;1.70;80.90
16517;DHT22;8371;52.272;9.746;2022-12-11T08:13:27;1.70;80.90
16517;DHT22;8371;52.272;9.746;2022-12-11T08:15:52;1.70;81.00
16517;DHT22;8371;52.272;9.746;2022-12-11T08:18:18;1.70;80.90
16517;DHT22;8371;52.272;9.746;2022-12-11T08:20:44;1.70;80.90
16517;DHT22;8371;52.272;9.746;2022-12-11T08:23:10;1.70;80.80
16517;DHT22;8371;52.272;9.746;2022-12-11T08:25:35;1.70;80.90
16517;DHT22;8371;52.272;9.746;2022-12-11T08:28:01;1.70;80.90
16517;DHT22;8371;52.272;9.746;2022-12-11T08:30:27;1.70;80.80
16517;DHT22;8371;52.272;9.746;2022-12-11T08:32:53;1.70;80.80
16517;DHT22;8371;52.272;9.746;2022-12-11T08:35:19;1.70;80.90
16517;DHT22;8371;52.272;9.746;2022-12-11T08:37:45;1.70;80.90
16517;DHT22;8371;52.272;9.746;2022-12-11T08:40:11;1.70;80.90
16517;DHT22;8371;52.272;9.746;2022-12-11T08:42:37;1.70;80.90
16517;DHT22;8371;52.272;9.746;2022-12-11T08:45:03;1.80;81.00
16517;DHT22;8371;52.272;9.746;2022-12-11T08:47:29;1.70;80.80
16517;DHT22;8371;52.272;9.746;2022-12-11T08:49:55;1.80;80.80
16517;DHT22;8371;52.272;9.746;2022-12-11T08:52:21;1.80;81.00
16517;DHT22;8371;52.272;9.746;2022-12-11T08:54:47;1.80;81.00
16517;DHT22;8371;52.272;9.746;2022-12-11T08:57:13;1.80;81.10
16517;DHT22;8371;52.272;9.746;2022-12-11T08:59:39;1.80;81.00
16517;DHT22;8371;52.272;9.746;2022-12-11T09:02:05;1.80;81.10
16517;DHT22;8371;52.272;9.746;2022-12-11T09:04:31;1.90;81.10
16517;DHT22;8371;52.272;9.746;2022-12-11T09:06:57;1.90;81.10
16517;DHT22;8371;52.272;9.746;2022-12-11T09:09:23;1.90;81.00
16517;DHT22;8371;52.272;9.746;2022-12-11T09:11:48;1.90;81.00
16517;DHT22;8371;52.272;9.746;2022-12-11T09:14:14;2.00;81.10
16517;DHT22;8371;52.272;9.746;2022-12-11T09:16:41;2.00;81.00
16517;DHT22;8371;52.272;9.746;2022-12-11T09:19:10;2.00;81.00
16517;DHT22;8371;52.272;9.746;2022-12-11T09:21:36;2.00;80.70
16517;DHT22;8371;52.272;9.746;2022-12-11T09:24:03;2.10;81.00
16517;DHT22;8371;52.272;9.746;2022-12-11T09:26:29;2.20;81.00
16517;DHT22;8371;52.272;9.746;2022-12-11T09:28:55;2.10;80.80
16517;DHT22;8371;52.272;9.746;2022-12-11T09:31:26;2.10;81.00
16517;DHT22;8371;52.272;9.746;2022-12-11T09:33:57;2.10;81.00
16517;DHT22;8371;52.272;9.746;2022-12-11T09:36:23;2.20;81.00
16517;DHT22;8371;52.272;9.746;2022-12-11T09:38:49;2.20;81.10
16517;DHT22;8371;52.272;9.746;2022-12-11T09:41:28;2.20;81.10
16517;DHT22;8371;52.272;9.746;2022-12-11T09:46:35;2.30;81.10
16517;DHT22;8371;52.272;9.746;2022-12-11T09:49:03;2.30;81.00
16517;DHT22;8371;52.272;9.746;2022-12-11T09:51:45;2.30;81.70
16517;DHT22;8371;52.272;9.746;2022-12-11T09:54:11;2.40;80.80
16517;DHT22;8371;52.272;9.746;2022-12-11T09:56:41;2.40;80.90
16517;DHT22;8371;52.272;9.746;2022-12-11T09:59:30;2.40;80.90
16517;DHT22;8371;52.272;9.746;2022-12-11T10:02:11;2.40;80.90
16517;DHT22;8371;52.272;9.746;2022-12-11T10:07:10;2.50;81.00
16517;DHT22;8371;52.272;9.746;2022-12-11T10:10:01;2.50;81.20
16517;DHT22;8371;52.272;9.746;2022-12-11T10:15:23;2.60;80.70
16517;DHT22;8371;52.272;9.746;2022-12-11T10:17:47;2.60;80.50
16517;DHT22;8371;52.272;9.746;2022-12-11T10:22:45;2.60;81.20
16517;DHT22;8371;52.272;9.746;2022-12-11T10:25:19;2.70;81.30
16517;DHT22;8371;52.272;9.746;2022-12-11T10:27:44;2.70;80.60
16517;DHT22;8371;52.272;9.746;2022-12-11T10:30:26;2.70;80.60
16517;DHT22;8371;52.272;9.746;2022-12-11T10:32:52;2.70;80.50
16517;DHT22;8371;52.272;9.746;2022-12-11T10:38:12;2.70;80.70
16517;DHT22;8371;52.272;9.746;2022-12-11T10:40:42;2.80;80.80
16517;DHT22;8371;52.272;9.746;2022-12-11T10:43:08;2.80;80.80
16517;DHT22;8371;52.272;9.746;2022-12-11T10:45:35;2.90;80.90
16517;DHT22;8371;52.272;9.746;2022-12-11T10:48:08;2.90;81.00
16517;DHT22;8371;52.272;9.746;2022-12-11T10:50:33;2.90;81.00
16517;DHT22;8371;52.272;9.746;2022-12-11T10:52:59;3.00;81.00
16517;DHT22;8371;52.272;9.746;2022-12-11T10:55:32;3.10;81.10
16517;DHT22;8371;52.272;9.746;2022-12-11T10:58:00;3.20;81.10
16517;DHT22;8371;52.272;9.746;2022-12-11T11:00:38;3.20;81.10
16517;DHT22;8371;52.272;9.746;2022-12-11T11:03:17;3.30;81.00
16517;DHT22;8371;52.272;9.746;2022-12-11T11:05:35;3.40;81.00
16517;DHT22;8371;52.272;9.746;2022-12-11T11:08:17;3.50;81.00
16517;DHT22;8371;52.272;9.746;2022-12-11T11:10:58;3.50;80.90
16517;DHT22;8371;52.272;9.746;2022-12-11T11:13:27;3.60;80.50
16517;DHT22;8371;52.272;9.746;2022-12-11T11:16:00;3.70;80.40
16517;DHT22;8371;52.272;9.746;2022-12-11T11:18:28;3.70;80.20
16517;DHT22;8371;52.272;9.746;2022-12-11T11:20:55;3.70;80.30
16517;DHT22;8371;52.272;9.746;2022-12-11T11:23:22;3.70;80.40
16517;DHT22;8371;52.272;9.746;2022-12-11T11:25:54;3.80;80.50
16517;DHT22;8371;52.272;9.746;2022-12-11T11:28:23;3.90;80.50
16517;DHT22;8371;52.272;9.746;2022-12-11T11:31:05;3.90;80.40
16517;DHT22;8371;52.272;9.746;2022-12-11T11:33:33;4.00;80.40
16517;DHT22;8371;52.272;9.746;2022-12-11T11:36:02;4.10;80.00
16517;DHT22;8371;52.272;9.746;2022-12-11T11:38:32;4.10;79.90
16517;DHT22;8371;52.272;9.746;2022-12-11T11:43:50;4.10;79.80
16517;DHT22;8371;52.272;9.746;2022-12-11T11:46:26;4.20;79.80
16517;DHT22;8371;52.272;9.746;2022-12-11T11:49:05;4.20;79.70
16517;DHT22;8371;52.272;9.746;2022-12-11T11:51:45;4.20;79.50
16517;DHT22;8371;52.272;9.746;2022-12-11T11:56:51;4.20;79.10
16517;DHT22;8371;52.272;9.746;2022-12-11T11:59:38;4.20;78.90
16517;DHT22;8371;52.272;9.746;2022-12-11T12:02:12;4.20;78.70
16517;DHT22;8371;52.272;9.746;2022-12-11T12:04:33;4.20;78.60
16517;DHT22;8371;52.272;9.746;2022-12-11T12:07:22;4.10;78.50
16517;DHT22;8371;52.272;9.746;2022-12-11T12:15:48;3.90;78.10
16517;DHT22;8371;52.272;9.746;2022-12-11T12:26:44;3.50;78.00
16517;DHT22;8371;52.272;9.746;2022-12-11T12:29:32;3.40;78.20
16517;DHT22;8371;52.272;9.746;2022-12-11T12:37:37;3.20;78.50
16517;DHT22;8371;52.272;9.746;2022-12-11T12:48:31;2.90;78.70
16517;DHT22;8371;52.272;9.746;2022-12-11T12:50:57;2.80;78.80
16517;DHT22;8371;52.272;9.746;2022-12-11T12:53:26;2.80;78.90
16517;DHT22;8371;52.272;9.746;2022-12-11T12:55:53;2.70;78.90
16517;DHT22;8371;52.272;9.746;2022-12-11T12:58:43;2.70;78.90
16517;DHT22;8371;52.272;9.746;2022-12-11T13:04:00;2.70;79.10
16517;DHT22;8371;52.272;9.746;2022-12-11T13:11:51;2.50;79.20
16517;DHT22;8371;52.272;9.746;2022-12-11T13:14:29;2.50;79.40
16517;DHT22;8371;52.272;9.746;2022-12-11T13:17:05;2.50;79.40
16517;DHT22;8371;52.272;9.746;2022-12-11T13:19:32;2.40;79.30
16517;DHT22;8371;52.272;9.746;2022-12-11T13:24:56;2.40;79.40
16517;DHT22;8371;52.272;9.746;2022-12-11T13:27:35;2.40;79.40
16517;DHT22;8371;52.272;9.746;2022-12-11T13:32:43;2.30;79.30
16517;DHT22;8371;52.272;9.746;2022-12-11T13:35:15;2.40;79.40
16517;DHT22;8371;52.272;9.746;2022-12-11T13:37:45;2.30;79.40
16517;DHT22;8371;52.272;9.746;2022-12-11T13:40:19;2.20;79.30
16517;DHT22;8371;52.272;9.746;2022-12-11T13:42:54;2.30;79.50
16517;DHT22;8371;52.272;9.746;2022-12-11T13:45:37;2.20;79.40
16517;DHT22;8371;52.272;9.746;2022-12-11T13:47:56;2.20;79.50
16517;DHT22;8371;52.272;9.746;2022-12-11T13:50:28;2.20;79.50
16517;DHT22;8371;52.272;9.746;2022-12-11T13:52:57;2.10;79.60
16517;DHT22;8371;52.272;9.746;2022-12-11T13:55:29;2.20;79.80
16517;DHT22;8371;52.272;9.746;2022-12-11T13:57:55;2.10;79.80
16517;DHT22;8371;52.272;9.746;2022-12-11T14:00:28;2.10;79.80
16517;DHT22;8371;52.272;9.746;2022-12-11T14:02:59;2.10;79.80
16517;DHT22;8371;52.272;9.746;2022-12-11T14:05:26;2.10;79.80
16517;DHT22;8371;52.272;9.746;2022-12-11T14:07:54;2.10;79.80
16517;DHT22;8371;52.272;9.746;2022-12-11T14:10:26;2.10;79.90
16517;DHT22;8371;52.272;9.746;2022-12-11T14:12:59;2.10;79.90
16517;DHT22;8371;52.272;9.746;2022-12-11T14:15:26;2.10;80.00
16517;DHT22;8371;52.272;9.746;2022-12-11T14:17:53;2.10;80.00
16517;DHT22;8371;52.272;9.746;2022-12-11T14:20:22;2.10;79.40
16517;DHT22;8371;52.272;9.746;2022-12-11T14:22:48;2.10;80.10
16517;DHT22;8371;52.272;9.746;2022-12-11T14:25:23;2.10;80.10
16517;DHT22;8371;52.272;9.746;2022-12-11T14:27:54;2.10;80.20
16517;DHT22;8371;52.272;9.746;2022-12-11T14:30:27;2.20;80.40
16517;DHT22;8371;52.272;9.746;2022-12-11T14:32:56;2.20;80.40
16517;DHT22;8371;52.272;9.746;2022-12-11T14:37:53;2.20;80.30
16517;DHT22;8371;52.272;9.746;2022-12-11T14:40:22;2.20;80.20
16517;DHT22;8371;52.272;9.746;2022-12-11T14:42:51;2.20;80.20
16517;DHT22;8371;52.272;9.746;2022-12-11T14:47:51;2.20;80.20
16517;DHT22;8371;52.272;9.746;2022-12-11T14:50:22;2.20;80.10
16517;DHT22;8371;52.272;9.746;2022-12-11T14:52:50;2.20;80.10
16517;DHT22;8371;52.272;9.746;2022-12-11T14:55:32;2.20;80.10
16517;DHT22;8371;52.272;9.746;2022-12-11T14:58:20;2.20;80.00
16517;DHT22;8371;52.272;9.746;2022-12-11T15:01:01;2.20;80.80
16517;DHT22;8371;52.272;9.746;2022-12-11T15:03:35;2.20;79.90
16517;DHT22;8371;52.272;9.746;2022-12-11T15:06:17;2.20;80.20
16517;DHT22;8371;52.272;9.746;2022-12-11T15:08:33;2.20;79.80
16517;DHT22;8371;52.272;9.746;2022-12-11T15:11:10;2.20;79.70
16517;DHT22;8371;52.272;9.746;2022-12-11T15:13:47;2.20;79.70
16517;DHT22;8371;52.272;9.746;2022-12-11T15:16:06;2.20;79.50
16517;DHT22;8371;52.272;9.746;2022-12-11T15:18:35;2.10;79.30
16517;DHT22;8371;52.272;9.746;2022-12-11T15:21:03;2.10;79.20
16517;DHT22;8371;52.272;9.746;2022-12-11T15:23:35;2.10;79.00
16517;DHT22;8371;52.272;9.746;2022-12-11T15:26:01;2.00;78.90
16517;DHT22;8371;52.272;9.746;2022-12-11T15:28:29;2.00;78.70
16517;DHT22;8371;52.272;9.746;2022-12-11T15:31:05;1.90;78.50
16517;DHT22;8371;52.272;9.746;2022-12-11T15:33:32;1.90;78.40
16517;DHT22;8371;52.272;9.746;2022-12-11T15:36:04;1.80;78.30
16517;DHT22;8371;52.272;9.746;2022-12-11T15:38:33;1.70;78.10
16517;DHT22;8371;52.272;9.746;2022-12-11T15:41:00;1.60;77.90
16517;DHT22;8371;52.272;9.746;2022-12-11T15:43:27;1.50;77.90
16517;DHT22;8371;52.272;9.746;2022-12-11T15:45:54;1.40;77.70
16517;DHT22;8371;52.272;9.746;2022-12-11T15:48:19;1.30;77.60
16517;DHT22;8371;52.272;9.746;2022-12-11T15:50:45;1.30;77.60
16517;DHT22;8371;52.272;9.746;2022-12-11T15:53:11;1.10;77.60
16517;DHT22;8371;52.272;9.746;2022-12-11T15:55:37;1.00;78.40
16517;DHT22;8371;52.272;9.746;2022-12-11T15:58:06;0.90;77.70
16517;DHT22;8371;52.272;9.746;2022-12-11T16:00:33;0.90;78.00
16517;DHT22;8371;52.272;9.746;2022-12-11T16:02:58;0.70;78.00
16517;DHT22;8371;52.272;9.746;2022-12-11T16:05:24;0.60;78.00
16517;DHT22;8371;52.272;9.746;2022-12-11T16:07:50;0.50;78.20
16517;DHT22;8371;52.272;9.746;2022-12-11T16:10:21;0.50;79.10
16517;DHT22;8371;52.272;9.746;2022-12-11T16:12:47;0.40;78.30
16517;DHT22;8371;52.272;9.746;2022-12-11T16:15:13;0.30;78.30
16517;DHT22;8371;52.272;9.746;2022-12-11T16:17:39;0.20;78.40
16517;DHT22;8371;52.272;9.746;2022-12-11T16:20:06;0.10;78.50
16517;DHT22;8371;52.272;9.746;2022-12-11T16:22:32;0.00;78.60
16517;DHT22;8371;52.272;9.746;2022-12-11T16:24:58;0.00;78.80
16517;DHT22;8371;52.272;9.746;2022-12-11T16:27:24;-0.10;78.90
16517;DHT22;8371;52.272;9.746;2022-12-11T16:29:50;-0.10;79.10
16517;DHT22;8371;52.272;9.746;2022-12-11T16:32:19;-0.20;79.10
16517;DHT22;8371;52.272;9.746;2022-12-11T16:34:44;-0.20;79.30
16517;DHT22;8371;52.272;9.746;2022-12-11T16:37:10;-0.30;79.30
16517;DHT22;8371;52.272;9.746;2022-12-11T16:39:37;-0.30;79.40
16517;DHT22;8371;52.272;9.746;2022-12-11T16:42:04;-0.40;79.40
16517;DHT22;8371;52.272;9.746;2022-12-11T16:44:30;-0.40;79.60
16517;DHT22;8371;52.272;9.746;2022-12-11T16:46:56;-0.50;79.70
16517;DHT22;8371;52.272;9.746;2022-12-11T16:49:22;-0.50;79.70
16517;DHT22;8371;52.272;9.746;2022-12-11T16:51:48;-0.60;79.70
16517;DHT22;8371;52.272;9.746;2022-12-11T16:54:14;-0.60;79.80
16517;DHT22;8371;52.272;9.746;2022-12-11T16:56:40;-0.60;80.00
16517;DHT22;8371;52.272;9.746;2022-12-11T16:59:06;-0.60;80.10
16517;DHT22;8371;52.272;9.746;2022-12-11T17:01:32;-0.70;80.10
16517;DHT22;8371;52.272;9.746;2022-12-11T17:03:58;-0.70;80.20
16517;DHT22;8371;52.272;9.746;2022-12-11T17:06:25;-0.70;80.10
16517;DHT22;8371;52.272;9.746;2022-12-11T17:08:51;-0.80;80.00
16517;DHT22;8371;52.272;9.746;2022-12-11T17:11:20;-0.80;80.10
16517;DHT22;8371;52.272;9.746;2022-12-11T17:13:51;-0.80;80.00
16517;DHT22;8371;52.272;9.746;2022-12-11T17:16:15;-0.90;80.00
16517;DHT22;8371;52.272;9.746;2022-12-11T17:18:41;-0.90;80.10
16517;DHT22;8371;52.272;9.746;2022-12-11T17:21:15;-0.90;80.20
16517;DHT22;8371;52.272;9.746;2022-12-11T17:23:42;-0.90;80.10
16517;DHT22;8371;52.272;9.746;2022-12-11T17:26:08;-1.00;80.10